createdAt,value
2018-04-11T00:01:18.887Z,32.10
2018-04-11T00:03:47.367Z,29.43
2018-04-11T00:06:15.719Z,26.97
2018-04-11T00:08:44.107Z,27.53
2018-04-11T00:11:12.284Z,25.83
2018-04-11T00:13:40.506Z,30.87
2018-04-11T00:16:08.632Z,31.17
2018-04-11T00:18:36.948Z,29.97
2018-04-11T00:21:05.033Z,30.97
2018-04-11T00:23:33.437Z,28.33
2018-04-11T00:26:01.764Z,24.83
2018-04-11T00:28:30.175Z,27.83
2018-04-11T00:30:58.562Z,31.33
2018-04-11T00:33:26.940Z,29.27
2018-04-11T00:35:55.313Z,27.53
2018-04-11T00:38:23.682Z,23.43
2018-04-11T00:40:52.023Z,31.43
2018-04-11T00:43:20.118Z,28.63
2018-04-11T00:45:48.385Z,27.47
2018-04-11T00:48:16.673Z,28.70
2018-04-11T00:50:44.974Z,31.17
2018-04-11T00:53:25.017Z,26.37
2018-04-11T00:55:53.385Z,25.73
2018-04-11T00:58:21.725Z,27.63
2018-04-11T01:00:49.831Z,27.27
2018-04-11T01:03:18.209Z,30.20
2018-04-11T01:05:46.547Z,27.87
2018-04-11T01:08:14.666Z,28.10
2018-04-11T01:10:43.054Z,34.23
2018-04-11T01:13:11.418Z,28.00
2018-04-11T01:15:39.783Z,33.37
2018-04-11T01:18:07.864Z,29.13
2018-04-11T01:20:36.247Z,31.40
2018-04-11T01:23:04.327Z,31.73
2018-04-11T01:25:32.408Z,29.60
2018-04-11T01:28:00.789Z,33.57
2018-04-11T01:30:28.879Z,34.30
2018-04-11T01:32:57.204Z,33.53
2018-04-11T01:35:25.673Z,28.87
2018-04-11T01:37:53.952Z,33.57
2018-04-11T01:40:22.192Z,28.03
2018-04-11T01:42:50.312Z,28.77
2018-04-11T01:45:18.628Z,35.87
2018-04-11T01:47:46.774Z,29.83
2018-04-11T01:50:15.065Z,33.03
2018-04-11T01:52:43.223Z,29.63
2018-04-11T01:55:11.623Z,33.03
2018-04-11T01:57:39.957Z,25.37
2018-04-11T02:00:08.061Z,29.73
2018-04-11T02:02:36.171Z,30.00
2018-04-11T02:05:04.490Z,33.63
2018-04-11T02:07:32.595Z,28.90
2018-04-11T02:10:00.931Z,29.90
2018-04-11T02:12:29.038Z,31.83
2018-04-11T02:14:57.403Z,29.03
2018-04-11T02:17:25.843Z,29.00
2018-04-11T02:19:53.918Z,32.33
2018-04-11T02:22:22.217Z,30.97
2018-04-11T02:24:50.676Z,29.17
2018-04-11T02:27:18.985Z,28.40
2018-04-11T02:29:47.270Z,31.47
2018-04-11T02:32:15.439Z,31.07
2018-04-11T02:34:43.730Z,27.60
2018-04-11T02:37:11.818Z,28.13
2018-04-11T02:39:39.936Z,27.47
2018-04-11T02:42:08.596Z,27.20
2018-04-11T02:44:36.689Z,23.77
2018-04-11T02:47:04.879Z,29.03
2018-04-11T02:49:33.023Z,26.87
2018-04-11T02:52:01.524Z,26.10
2018-04-11T02:54:29.591Z,27.20
2018-04-11T02:56:57.975Z,26.60
2018-04-11T02:59:26.054Z,26.43
2018-04-11T03:01:54.426Z,25.90
2018-04-11T03:04:22.792Z,25.60
2018-04-11T03:06:50.896Z,27.23
2018-04-11T03:09:19.241Z,28.27
2018-04-11T03:11:47.633Z,23.73
2018-04-11T03:14:15.738Z,28.63
2018-04-11T03:16:44.082Z,23.80
2018-04-11T03:19:12.249Z,23.93
2018-04-11T03:21:40.342Z,25.67
2018-04-11T03:24:08.703Z,28.50
2018-04-11T03:26:37.095Z,27.00
2018-04-11T03:29:05.174Z,22.57
2018-04-11T03:31:33.457Z,23.50
2018-04-11T03:34:01.534Z,23.57
2018-04-11T03:36:29.894Z,26.70
2018-04-11T03:38:58.031Z,24.47
2018-04-11T03:41:26.447Z,24.60
2018-04-11T03:43:54.746Z,23.03
2018-04-11T03:46:22.832Z,25.67
2018-04-11T03:48:50.933Z,23.97
2018-04-11T03:51:19.322Z,28.87
2018-04-11T03:53:47.682Z,22.00
2018-04-11T03:56:16.158Z,25.97
2018-04-11T03:58:44.349Z,24.13
2018-04-11T04:01:12.533Z,26.53
2018-04-11T04:03:40.891Z,18.90
2018-04-11T04:06:09.268Z,24.60
2018-04-11T04:08:37.639Z,25.83
2018-04-11T04:11:06.022Z,27.30
2018-04-11T04:13:45.863Z,25.43
2018-04-11T04:16:25.858Z,24.23
2018-04-11T04:19:05.814Z,27.43
2018-04-11T04:21:33.882Z,28.07
2018-04-11T04:24:01.965Z,21.77
2018-04-11T04:26:30.082Z,23.77
2018-04-11T04:28:58.153Z,24.30
2018-04-11T04:31:26.426Z,31.63
2018-04-11T04:33:54.614Z,27.23
2018-04-11T04:36:22.798Z,25.10
2018-04-11T04:38:51.107Z,25.90
2018-04-11T04:41:19.479Z,25.73
2018-04-11T04:43:47.600Z,21.77
2018-04-11T04:46:15.999Z,27.17
2018-04-11T04:48:44.297Z,26.90
2018-04-11T04:51:12.414Z,24.23
2018-04-11T04:53:40.849Z,27.73
2018-04-11T04:56:08.974Z,27.80
2018-04-11T04:58:37.370Z,23.47
2018-04-11T05:01:05.650Z,28.77
2018-04-11T05:03:33.863Z,25.40
2018-04-11T05:06:02.197Z,25.27
2018-04-11T05:08:30.374Z,26.60
2018-04-11T05:10:58.695Z,27.50
2018-04-11T05:13:27.043Z,27.00
2018-04-11T05:15:55.308Z,29.13
2018-04-11T05:18:23.514Z,33.13
2018-04-11T05:20:51.772Z,29.57
2018-04-11T05:23:20.066Z,29.33
2018-04-11T05:25:48.221Z,26.67
2018-04-11T05:28:16.758Z,33.03
2018-04-11T05:30:45.814Z,27.83
2018-04-11T05:33:14.435Z,39.97
2018-04-11T05:35:42.622Z,30.13
2018-04-11T05:38:10.903Z,27.77
2018-04-11T05:40:39.094Z,29.17
2018-04-11T05:43:07.455Z,28.33
2018-04-11T05:45:35.884Z,29.53
2018-04-11T05:48:04.024Z,32.30
2018-04-11T05:50:32.217Z,31.67
2018-04-11T05:53:00.341Z,24.97
2018-04-11T05:55:28.800Z,30.37
2018-04-11T05:57:56.926Z,28.23
2018-04-11T06:00:25.005Z,32.70
2018-04-11T06:02:54.155Z,32.77
2018-04-11T06:05:22.421Z,79.27
2018-04-11T06:07:50.877Z,33.23
2018-04-11T06:10:19.254Z,31.27
2018-04-11T06:12:47.702Z,44.60
2018-04-11T06:15:15.980Z,28.23
2018-04-11T06:17:44.220Z,44.23
2018-04-11T06:20:12.627Z,32.93
2018-04-11T06:22:41.030Z,32.07
2018-04-11T06:25:09.373Z,55.83
2018-04-11T06:27:38.359Z,27.60
2018-04-11T06:30:06.855Z,28.73
2018-04-11T06:32:34.943Z,35.47
2018-04-11T06:35:03.236Z,45.17
2018-04-11T06:37:31.522Z,44.67
2018-04-11T06:39:59.656Z,31.80
2018-04-11T06:42:28.041Z,30.17
2018-04-11T06:44:56.632Z,27.27
2018-04-11T06:47:25.752Z,27.80
2018-04-11T06:49:54.391Z,33.90
2018-04-11T06:52:22.679Z,28.53
2018-04-11T06:54:51.365Z,30.73
2018-04-11T06:57:19.772Z,27.67
2018-04-11T06:59:47.934Z,32.43
2018-04-11T07:02:16.591Z,32.03
2018-04-11T07:04:44.818Z,26.07
2018-04-11T07:07:13.075Z,28.43
2018-04-11T07:09:41.429Z,29.40
2018-04-11T07:12:10.038Z,75.07
2018-04-11T07:14:38.622Z,30.90
2018-04-11T07:17:06.774Z,33.57
2018-04-11T07:19:35.849Z,23.33
2018-04-11T07:22:04.052Z,29.07
2018-04-11T07:24:32.777Z,29.70
2018-04-11T07:27:00.965Z,32.60
2018-04-11T07:29:29.249Z,25.37
2018-04-11T07:31:57.750Z,32.87
2018-04-11T07:34:26.731Z,29.90
2018-04-11T07:36:55.046Z,42.70
2018-04-11T07:39:23.490Z,31.47
2018-04-11T07:41:52.135Z,29.80
2018-04-11T07:44:20.536Z,31.83
2018-04-11T07:46:48.881Z,36.30
2018-04-11T07:49:17.009Z,29.63
2018-04-11T07:51:45.314Z,31.33
2018-04-11T07:54:13.637Z,30.77
2018-04-11T07:56:42.412Z,29.37
2018-04-11T07:59:10.768Z,30.47
2018-04-11T08:01:39.178Z,32.50
2018-04-11T08:04:07.301Z,31.93
2018-04-11T08:06:35.670Z,29.70
2018-04-11T08:09:03.923Z,34.63
2018-04-11T08:11:32.062Z,35.30
2018-04-11T08:14:00.259Z,33.37
2018-04-11T08:16:28.574Z,33.57
2018-04-11T08:18:56.820Z,34.67
2018-04-11T08:21:25.302Z,34.10
2018-04-11T08:23:53.086Z,34.97
2018-04-11T08:26:21.442Z,36.50
2018-04-11T08:28:49.927Z,37.13
2018-04-11T08:31:18.243Z,34.43
2018-04-11T08:33:47.338Z,33.47
2018-04-11T08:36:15.623Z,32.47
2018-04-11T08:38:44.430Z,43.53
2018-04-11T08:41:12.786Z,32.77
2018-04-11T08:43:41.512Z,31.57
2018-04-11T08:46:09.979Z,34.13
2018-04-11T08:48:38.297Z,31.03
2018-04-11T08:51:06.579Z,33.10
2018-04-11T08:53:34.698Z,34.17
2018-04-11T08:56:03.256Z,36.10
2018-04-11T08:58:31.893Z,35.43
2018-04-11T09:01:00.297Z,33.60
2018-04-11T09:03:29.189Z,32.90
2018-04-11T09:05:57.348Z,33.47
2018-04-11T09:08:25.766Z,31.30
2018-04-11T09:10:54.067Z,33.20
2018-04-11T09:13:22.417Z,35.77
2018-04-11T09:15:50.856Z,34.33
2018-04-11T09:18:19.506Z,36.00
2018-04-11T09:20:48.039Z,29.23
2018-04-11T09:23:16.476Z,35.50
2018-04-11T09:25:44.894Z,41.40
2018-04-11T09:28:13.435Z,34.87
2018-04-11T09:30:41.663Z,40.70
2018-04-11T09:33:10.088Z,39.10
2018-04-11T09:35:38.504Z,37.07
2018-04-11T09:38:07.171Z,38.07
2018-04-11T09:40:35.368Z,39.40
2018-04-11T09:43:03.547Z,33.73
2018-04-11T09:45:31.994Z,32.40
2018-04-11T09:48:00.314Z,41.70
2018-04-11T09:50:28.580Z,37.40
2018-04-11T09:52:56.953Z,36.40
2018-04-11T09:55:25.382Z,39.83
2018-04-11T09:57:53.560Z,34.00
2018-04-11T10:00:21.749Z,37.57
2018-04-11T10:02:56.059Z,41.73
2018-04-11T10:05:24.669Z,41.53
2018-04-11T10:07:53.546Z,40.73
2018-04-11T10:10:21.920Z,38.07
2018-04-11T10:12:50.144Z,39.17
2018-04-11T10:15:18.388Z,45.37
2018-04-11T10:17:46.655Z,40.33
2018-04-11T10:20:15.128Z,43.37
2018-04-11T10:22:43.370Z,34.53
2018-04-11T10:25:11.580Z,36.67
2018-04-11T10:27:39.887Z,42.17
2018-04-11T10:30:08.119Z,43.43
2018-04-11T10:32:36.318Z,42.20
2018-04-11T10:35:04.940Z,36.03
2018-04-11T10:37:33.220Z,41.33
2018-04-11T10:40:01.653Z,44.17
2018-04-11T10:42:29.916Z,41.57
2018-04-11T10:44:58.348Z,39.67
2018-04-11T10:47:26.581Z,37.77
2018-04-11T10:49:54.689Z,40.73
2018-04-11T10:52:22.815Z,44.70
2018-04-11T10:54:51.499Z,40.33
2018-04-11T10:57:20.389Z,39.50
2018-04-11T10:59:49.032Z,38.33
2018-04-11T11:02:17.203Z,39.40
2018-04-11T11:04:45.624Z,35.47
2018-04-11T11:07:14.310Z,40.00
2018-04-11T11:09:42.526Z,38.23
2018-04-11T11:12:10.968Z,39.33
2018-04-11T11:14:39.477Z,42.33
2018-04-11T11:17:07.902Z,37.40
2018-04-11T11:19:36.400Z,39.73
2018-04-11T11:22:05.821Z,43.33
2018-04-11T11:24:34.111Z,38.87
2018-04-11T11:27:02.497Z,39.97
2018-04-11T11:29:30.874Z,36.23
2018-04-11T11:31:59.526Z,42.40
2018-04-11T11:34:27.748Z,38.63
2018-04-11T11:36:56.024Z,41.63
2018-04-11T11:39:24.240Z,30.33
2018-04-11T11:41:52.590Z,31.23
2018-04-11T11:44:20.906Z,36.73
2018-04-11T11:46:49.279Z,39.10
2018-04-11T11:49:17.375Z,41.80
2018-04-11T11:51:45.784Z,44.87
2018-04-11T11:54:14.158Z,41.00
2018-04-11T11:56:42.477Z,39.13
2018-04-11T11:59:10.867Z,38.07
2018-04-11T12:01:39.080Z,39.80
2018-04-11T12:04:07.462Z,36.00
2018-04-11T12:06:35.716Z,37.00
2018-04-11T12:09:04.024Z,43.17
2018-04-11T12:11:32.268Z,47.10
2018-04-11T12:14:00.430Z,29.67
2018-04-11T12:16:29.151Z,38.47
2018-04-11T12:18:57.516Z,38.17
2018-04-11T12:21:25.904Z,42.30
2018-04-11T12:23:54.729Z,44.37
2018-04-11T12:26:23.248Z,40.10
2018-04-11T12:28:51.745Z,42.13
2018-04-11T12:31:19.872Z,41.33
2018-04-11T12:33:48.010Z,31.60
2018-04-11T12:36:16.421Z,37.57
2018-04-11T12:38:44.526Z,36.07
2018-04-11T12:41:12.875Z,40.63
2018-04-11T12:43:41.068Z,37.50
2018-04-11T12:46:09.171Z,36.57
2018-04-11T12:48:37.378Z,38.30
2018-04-11T12:51:05.530Z,39.97
2018-04-11T12:53:33.839Z,40.63
2018-04-11T12:56:01.971Z,38.60
2018-04-11T12:58:30.528Z,40.83
2018-04-11T13:00:59.996Z,41.20
2018-04-11T13:03:27.720Z,37.73
2018-04-11T13:05:56.070Z,43.03
2018-04-11T13:08:24.230Z,43.73
2018-04-11T13:10:52.314Z,44.63
2018-04-11T13:13:20.985Z,39.73
2018-04-11T13:15:49.363Z,39.50
2018-04-11T13:18:17.728Z,31.33
2018-04-11T13:20:45.827Z,40.37
2018-04-11T13:23:14.090Z,36.37
2018-04-11T13:25:42.516Z,37.97
2018-04-11T13:28:10.943Z,39.67
2018-04-11T13:30:39.140Z,35.40
2018-04-11T13:33:07.631Z,37.10
2018-04-11T13:35:35.987Z,40.57
2018-04-11T13:38:04.140Z,42.33
2018-04-11T13:40:32.457Z,38.73
2018-04-11T13:43:00.917Z,36.63
2018-04-11T13:45:29.284Z,36.93
2018-04-11T13:47:57.597Z,40.83
2018-04-11T13:50:26.173Z,36.23
2018-04-11T13:52:54.287Z,31.43
2018-04-11T13:55:23.124Z,35.83
2018-04-11T13:57:51.407Z,34.77
2018-04-11T14:00:19.717Z,31.27
2018-04-11T14:02:47.819Z,37.23
2018-04-11T14:05:15.958Z,36.30
2018-04-11T14:07:44.376Z,66.37
2018-04-11T14:10:12.484Z,34.67
2018-04-11T14:12:40.830Z,31.43
2018-04-11T14:15:09.131Z,51.53
2018-04-11T14:17:37.279Z,36.27
2018-04-11T14:20:05.657Z,31.40
2018-04-11T14:22:34.036Z,36.47
2018-04-11T14:25:02.154Z,33.30
2018-04-11T14:27:30.406Z,38.50
2018-04-11T14:29:58.756Z,31.00
2018-04-11T14:32:27.117Z,36.17
2018-04-11T14:34:55.220Z,37.67
2018-04-11T14:37:23.562Z,36.17
2018-04-11T14:39:52.210Z,34.17
2018-04-11T14:42:20.341Z,29.53
2018-04-11T14:44:48.810Z,35.53
2018-04-11T14:47:17.209Z,35.27
2018-04-11T14:49:45.551Z,34.83
2018-04-11T14:52:14.143Z,29.90
2018-04-11T14:54:42.255Z,28.67
2018-04-11T14:57:10.781Z,31.77
2018-04-11T14:59:39.386Z,31.00
2018-04-11T15:02:07.712Z,27.97
2018-04-11T15:04:36.241Z,26.47
2018-04-11T15:07:04.387Z,27.63
2018-04-11T15:09:32.547Z,33.10
2018-04-11T15:12:00.993Z,28.27
2018-04-11T15:14:29.218Z,29.00
2018-04-11T15:16:57.582Z,27.40
2018-04-11T15:19:25.769Z,30.13
2018-04-11T15:21:54.138Z,31.77
2018-04-11T15:24:22.492Z,26.90
2018-04-11T15:26:50.946Z,31.27
2018-04-11T15:29:19.530Z,30.30
2018-04-11T15:31:48.271Z,28.57
2018-04-11T15:34:16.594Z,25.13
2018-04-11T15:36:44.905Z,26.53
2018-04-11T15:39:13.317Z,24.80
2018-04-11T15:41:41.645Z,27.93
2018-04-11T15:44:10.049Z,27.53
2018-04-11T15:46:38.388Z,28.37
2018-04-11T15:49:06.901Z,25.00
2018-04-11T15:51:35.176Z,25.60
2018-04-11T15:54:03.680Z,28.97
2018-04-11T15:56:31.908Z,25.57
2018-04-11T15:59:00.878Z,27.43
2018-04-11T16:01:29.009Z,25.57
2018-04-11T16:03:57.117Z,26.60
2018-04-11T16:06:25.240Z,26.43
2018-04-11T16:08:54.014Z,25.47
2018-04-11T16:11:22.268Z,31.60
2018-04-11T16:13:50.481Z,27.07
2018-04-11T16:16:18.928Z,24.63
2018-04-11T16:18:47.034Z,26.97
2018-04-11T16:21:15.409Z,30.63
2018-04-11T16:23:43.547Z,31.90
2018-04-11T16:26:11.927Z,32.57
2018-04-11T16:28:40.228Z,30.53
2018-04-11T16:31:08.587Z,31.77
2018-04-11T16:33:36.763Z,30.20
2018-04-11T16:36:05.055Z,30.97
2018-04-11T16:38:33.450Z,29.67
2018-04-11T16:41:01.669Z,27.50
2018-04-11T16:43:29.776Z,29.73
2018-04-11T16:45:58.028Z,34.23
2018-04-11T16:48:26.381Z,39.53
2018-04-11T16:50:54.507Z,39.90
2018-04-11T16:53:23.006Z,36.40
2018-04-11T16:55:51.413Z,38.63
2018-04-11T16:58:19.522Z,36.93
2018-04-11T17:00:47.891Z,35.67
2018-04-11T17:03:15.979Z,40.67
2018-04-11T17:05:44.403Z,37.20
2018-04-11T17:08:12.783Z,37.90
2018-04-11T17:10:40.935Z,41.00
2018-04-11T17:13:09.190Z,36.93
2018-04-11T17:15:37.298Z,34.40
2018-04-11T17:18:05.601Z,36.70
2018-04-11T17:20:45.479Z,35.33
2018-04-11T17:23:25.397Z,33.77
2018-04-11T17:26:05.436Z,29.73
2018-04-11T17:28:45.272Z,35.90
2018-04-11T17:31:18.881Z,35.63
2018-04-11T17:33:47.366Z,38.33
2018-04-11T17:36:15.842Z,34.57
2018-04-11T17:38:44.257Z,35.37
2018-04-11T17:41:13.716Z,38.10
2018-04-11T17:43:42.304Z,38.30
2018-04-11T17:46:10.641Z,40.00
2018-04-11T17:48:38.940Z,36.57
2018-04-11T17:51:07.038Z,37.67
2018-04-11T17:53:35.151Z,35.13
2018-04-11T17:56:05.602Z,34.83
2018-04-11T17:58:34.044Z,32.93
2018-04-11T18:01:02.414Z,36.77
2018-04-11T18:03:30.544Z,34.90
2018-04-11T18:05:58.873Z,32.60
2018-04-11T18:08:27.262Z,35.13
2018-04-11T18:10:55.667Z,35.83
2018-04-11T18:13:23.992Z,35.27
2018-04-11T18:15:52.367Z,32.93
2018-04-11T18:18:20.435Z,32.37
2018-04-11T18:20:48.634Z,35.60
2018-04-11T18:23:16.870Z,39.00
2018-04-11T18:25:44.967Z,36.03
2018-04-11T18:28:13.332Z,33.33
2018-04-11T18:30:41.419Z,35.17
2018-04-11T18:33:09.527Z,33.83
2018-04-11T18:35:37.638Z,29.10
2018-04-11T18:38:05.821Z,32.60
2018-04-11T18:40:33.967Z,38.93
2018-04-11T18:43:02.254Z,33.20
2018-04-11T18:45:30.683Z,31.70
2018-04-11T18:47:58.986Z,34.63
2018-04-11T18:50:27.126Z,35.83
2018-04-11T18:52:55.277Z,35.90
2018-04-11T18:55:23.969Z,37.13
2018-04-11T18:57:52.056Z,34.47
2018-04-11T19:00:20.181Z,53.60
2018-04-11T19:02:48.432Z,41.73
2018-04-11T19:05:16.639Z,34.33
2018-04-11T19:07:44.938Z,34.00
2018-04-11T19:10:13.056Z,35.23
2018-04-11T19:12:44.865Z,33.23
2018-04-11T19:15:14.078Z,32.00
2018-04-11T19:17:46.085Z,29.87
2018-04-11T19:20:19.245Z,34.73
2018-04-11T19:22:47.561Z,32.13
2018-04-11T19:25:23.009Z,32.77
2018-04-11T19:27:51.351Z,34.13
2018-04-11T19:30:19.645Z,24.67
2018-04-11T19:32:47.807Z,32.83
2018-04-11T19:35:16.452Z,35.40
2018-04-11T19:37:44.885Z,35.40
2018-04-11T19:40:13.176Z,25.27
2018-04-11T19:42:41.381Z,34.57
2018-04-11T19:45:09.606Z,38.70
2018-04-11T19:47:38.082Z,35.23
2018-04-11T19:50:07.060Z,36.90
2018-04-11T19:52:35.406Z,39.53
2018-04-11T19:55:04.747Z,38.97
2018-04-11T19:57:32.976Z,35.33
2018-04-11T20:00:01.176Z,37.67
2018-04-11T20:02:29.545Z,42.43
2018-04-11T20:04:57.915Z,43.67
2018-04-11T20:07:26.281Z,39.27
2018-04-11T20:09:54.458Z,39.90
2018-04-11T20:12:22.870Z,40.67
2018-04-11T20:14:51.025Z,41.97
2018-04-11T20:17:19.245Z,39.30
2018-04-11T20:19:47.469Z,41.20
2018-04-11T20:22:16.293Z,38.90
2018-04-11T20:24:44.381Z,38.80
2018-04-11T20:27:12.512Z,37.47
2018-04-11T20:29:40.901Z,39.80
2018-04-11T20:32:09.192Z,33.20
2018-04-11T20:34:38.553Z,44.63
2018-04-11T20:37:06.883Z,39.60
2018-04-11T20:39:35.005Z,42.90
2018-04-11T20:42:03.144Z,52.53
2018-04-11T20:44:31.362Z,43.50
2018-04-11T20:46:59.674Z,43.03
2018-04-11T20:49:27.834Z,45.40
2018-04-11T20:51:56.131Z,46.77
2018-04-11T20:54:24.381Z,46.57
2018-04-11T20:56:52.652Z,47.33
2018-04-11T20:59:20.749Z,38.47
2018-04-11T21:01:48.863Z,46.93
2018-04-11T21:04:16.946Z,50.07
2018-04-11T21:06:45.185Z,49.97
2018-04-11T21:09:13.424Z,42.03
2018-04-11T21:11:41.630Z,57.93
2018-04-11T21:14:09.823Z,51.50
2018-04-11T21:16:38.075Z,56.77
2018-04-11T21:19:06.364Z,47.03
2018-04-11T21:21:34.487Z,56.93
2018-04-11T21:24:02.861Z,53.07
2018-04-11T21:26:30.974Z,51.57
2018-04-11T21:28:59.226Z,49.53
2018-04-11T21:31:27.608Z,53.50
2018-04-11T21:33:55.957Z,63.80
2018-04-11T21:36:24.335Z,60.57
2018-04-11T21:38:52.717Z,63.53
2018-04-11T21:41:20.847Z,61.87
2018-04-11T21:43:49.192Z,59.93
2018-04-11T21:46:17.639Z,71.13
2018-04-11T21:48:45.999Z,69.43
2018-04-11T21:51:14.173Z,70.07
2018-04-11T21:53:42.316Z,68.50
2018-04-11T21:56:10.427Z,69.00
2018-04-11T21:58:38.524Z,59.97
2018-04-11T22:01:07.213Z,60.57
2018-04-11T22:03:35.377Z,51.57
2018-04-11T22:09:03.275Z,54.17
2018-04-11T22:11:31.672Z,62.63
2018-04-11T22:13:59.793Z,65.00
2018-04-11T22:16:27.980Z,64.63
2018-04-11T22:18:56.344Z,60.70
2018-04-11T22:21:24.697Z,67.67
2018-04-11T22:23:52.831Z,70.83
2018-04-11T22:26:20.957Z,58.47
2018-04-11T22:28:49.262Z,68.27
2018-04-11T22:31:17.365Z,63.30
2018-04-11T22:33:45.773Z,64.70
2018-04-11T22:36:13.908Z,65.40
2018-04-11T22:38:42.242Z,63.67
2018-04-11T22:41:10.706Z,57.17
2018-04-11T22:43:38.940Z,66.50
2018-04-11T22:46:07.088Z,51.37
2018-04-11T22:48:35.420Z,61.57
2018-04-11T22:51:03.543Z,65.40
2018-04-11T22:53:31.671Z,65.93
2018-04-11T22:56:00.290Z,65.70
2018-04-11T22:58:28.703Z,69.37
2018-04-11T23:00:56.976Z,54.00
2018-04-11T23:03:25.331Z,58.67
2018-04-11T23:05:53.429Z,67.17
2018-04-11T23:08:21.781Z,72.23
2018-04-11T23:10:50.148Z,75.37
2018-04-11T23:13:18.454Z,68.57
2018-04-11T23:15:46.584Z,73.90
2018-04-11T23:18:14.929Z,56.43
2018-04-11T23:20:43.063Z,63.93
2018-04-11T23:23:11.400Z,60.40
2018-04-11T23:25:39.481Z,59.23
2018-04-11T23:28:07.875Z,68.53
2018-04-11T23:30:36.321Z,67.47
2018-04-11T23:33:04.443Z,65.97
2018-04-11T23:35:32.530Z,70.83
2018-04-11T23:38:00.693Z,63.20
2018-04-11T23:40:28.919Z,66.03
2018-04-11T23:42:57.218Z,68.07
2018-04-11T23:45:25.593Z,83.57
2018-04-11T23:47:54.554Z,70.47
2018-04-11T23:50:22.672Z,65.93
2018-04-11T23:52:51.060Z,77.70
2018-04-11T23:55:19.175Z,68.73
2018-04-11T23:57:47.288Z,70.90
